createdAt,value
2022-08-31T00:00:14.218Z,96609.06
2022-08-31T00:02:58.998Z,96611.94
2022-08-31T00:05:26.633Z,96609.09
2022-08-31T00:07:57.121Z,96614.22
2022-08-31T00:10:32.824Z,96611.19
2022-08-31T00:13:17.559Z,96614.28
2022-08-31T00:15:46.162Z,96628.56
2022-08-31T00:18:22.318Z,96399.84
2022-08-31T00:20:50.389Z,96647.44
2022-08-31T00:23:21.045Z,96650.25
2022-08-31T00:26:01.397Z,96652.53
2022-08-31T00:28:29.553Z,96661.59
2022-08-31T00:30:57.174Z,96669.78
2022-08-31T00:33:24.955Z,96677.41
2022-08-31T00:35:54.719Z,96679.94
2022-08-31T00:38:22.453Z,96668.38
2022-08-31T00:40:54.448Z,96662.56
2022-08-31T00:43:37.570Z,96656.00
2022-08-31T00:46:09.056Z,96667.56
2022-08-31T00:48:37.122Z,96664.19
2022-08-31T00:51:04.774Z,96661.03
2022-08-31T00:53:32.792Z,96657.88
2022-08-31T00:56:05.190Z,96652.75
2022-08-31T00:58:32.857Z,96660.91
2022-08-31T01:01:00.843Z,96655.78
2022-08-31T01:03:28.680Z,96650.03
2022-08-31T01:05:56.562Z,96652.06
2022-08-31T01:08:28.800Z,96654.84
2022-08-31T01:10:58.816Z,96652.84
2022-08-31T01:13:31.716Z,96658.81
2022-08-31T01:16:00.547Z,96665.69
2022-08-31T01:18:30.740Z,96659.53
2022-08-31T01:21:00.701Z,96657.53
2022-08-31T01:23:33.538Z,96654.31
2022-08-31T01:26:01.301Z,96645.25
2022-08-31T01:28:28.878Z,96645.66
2022-08-31T01:31:02.172Z,96662.25
2022-08-31T01:33:32.572Z,96659.69
2022-08-31T01:36:00.468Z,96655.59
2022-08-31T01:38:30.002Z,96654.28
2022-08-31T01:40:58.489Z,96647.16
2022-08-31T01:43:26.316Z,96648.38
2022-08-31T01:45:53.914Z,96639.19
2022-08-31T01:48:21.714Z,96644.50
2022-08-31T01:50:49.975Z,96642.84
2022-08-31T01:53:19.939Z,96645.28
2022-08-31T01:55:52.249Z,96651.44
2022-08-31T01:58:21.722Z,96663.00
2022-08-31T02:00:49.494Z,96663.56
2022-08-31T02:03:17.335Z,96665.81
2022-08-31T02:05:45.485Z,96668.88
2022-08-31T02:08:15.557Z,96663.81
2022-08-31T02:10:44.361Z,96670.66
2022-08-31T02:13:13.612Z,96668.19
2022-08-31T02:15:41.420Z,96672.59
2022-08-31T02:18:09.170Z,96661.38
2022-08-31T02:20:39.749Z,96673.69
2022-08-31T02:23:07.906Z,96667.00
2022-08-31T02:25:35.772Z,96664.13
2022-08-31T02:28:05.678Z,96672.97
2022-08-31T02:30:35.001Z,96668.06
2022-08-31T02:33:03.126Z,96672.97
2022-08-31T02:35:33.103Z,96667.16
2022-08-31T02:38:01.441Z,96665.75
2022-08-31T02:40:31.814Z,96663.84
2022-08-31T02:43:00.630Z,96661.63
2022-08-31T02:45:28.470Z,96655.28
2022-08-31T02:47:57.591Z,96624.47
2022-08-31T02:50:25.314Z,96665.22
2022-08-31T02:52:59.733Z,96669.16
2022-08-31T02:55:28.337Z,96657.31
2022-08-31T02:57:56.238Z,96663.16
2022-08-31T03:00:24.787Z,96673.16
2022-08-31T03:02:52.789Z,96662.78
2022-08-31T03:05:22.377Z,96661.00
2022-08-31T03:07:51.041Z,96667.25
2022-08-31T03:10:21.234Z,96690.06
2022-08-31T03:12:49.032Z,96658.31
2022-08-31T03:15:19.631Z,96651.53
2022-08-31T03:17:48.678Z,96654.78
2022-08-31T03:20:16.723Z,96654.13
2022-08-31T03:22:45.952Z,96680.41
2022-08-31T03:25:14.564Z,96643.56
2022-08-31T03:27:42.377Z,96634.72
2022-08-31T03:30:14.462Z,96635.75
2022-08-31T03:32:42.635Z,96630.69
2022-08-31T03:35:10.527Z,96628.41
2022-08-31T03:37:38.168Z,96625.94
2022-08-31T03:40:08.299Z,96637.63
2022-08-31T03:42:36.572Z,96631.44
2022-08-31T03:45:04.977Z,96634.72
2022-08-31T03:47:35.826Z,96637.75
2022-08-31T03:50:12.054Z,96653.56
2022-08-31T03:52:43.489Z,96651.97
2022-08-31T03:55:12.780Z,96657.78
2022-08-31T03:57:42.433Z,96653.00
2022-08-31T04:00:10.814Z,96657.66
2022-08-31T04:02:42.544Z,96654.41
2022-08-31T04:05:13.308Z,96651.66
2022-08-31T04:07:45.881Z,96648.53
2022-08-31T04:10:15.782Z,96654.41
2022-08-31T04:12:44.864Z,96643.78
2022-08-31T04:15:15.449Z,96641.28
2022-08-31T04:17:43.625Z,96646.75
2022-08-31T04:20:18.141Z,96650.63
2022-08-31T04:22:54.069Z,96651.53
2022-08-31T04:25:23.542Z,96651.03
2022-08-31T04:27:54.220Z,96662.31
2022-08-31T04:30:23.435Z,96662.81
2022-08-31T04:32:51.271Z,96657.56
2022-08-31T04:35:18.931Z,96649.31
2022-08-31T04:37:47.054Z,96661.06
2022-08-31T04:40:19.878Z,96669.31
2022-08-31T04:42:52.931Z,96663.63
2022-08-31T04:45:20.992Z,96655.28
2022-08-31T04:47:48.997Z,96656.13
2022-08-31T04:50:17.146Z,96662.31
2022-08-31T04:53:03.096Z,96665.25
2022-08-31T04:55:37.289Z,96668.63
2022-08-31T04:58:06.686Z,96670.06
2022-08-31T05:00:35.394Z,96697.78
2022-08-31T05:03:04.240Z,96671.75
2022-08-31T05:05:33.836Z,96673.91
2022-08-31T05:08:06.977Z,96681.13
2022-08-31T05:10:41.331Z,96683.59
2022-08-31T05:13:13.887Z,96682.19
2022-08-31T05:15:42.743Z,96703.19
2022-08-31T05:18:10.631Z,96698.44
2022-08-31T05:20:41.581Z,96696.88
2022-08-31T05:23:09.998Z,96702.44
2022-08-31T05:25:40.126Z,96705.25
2022-08-31T05:28:08.277Z,96706.47
2022-08-31T05:30:38.927Z,96703.75
2022-08-31T05:33:10.179Z,96704.28
2022-08-31T05:35:43.972Z,96699.44
2022-08-31T05:38:11.866Z,96698.53
2022-08-31T05:40:42.658Z,96704.13
2022-08-31T05:43:19.905Z,96728.94
2022-08-31T05:45:53.380Z,96706.81
2022-08-31T05:48:21.848Z,96712.94
2022-08-31T05:50:49.843Z,96703.53
2022-08-31T05:53:20.344Z,96706.81
2022-08-31T05:55:48.541Z,96709.00
2022-08-31T05:58:17.551Z,96717.69
2022-08-31T06:00:45.274Z,96719.28
2022-08-31T06:03:14.666Z,96727.50
2022-08-31T06:05:45.014Z,96727.75
2022-08-31T06:08:17.941Z,96729.06
2022-08-31T06:10:46.619Z,96729.97
2022-08-31T06:13:17.405Z,96731.19
2022-08-31T06:15:45.098Z,96727.75
2022-08-31T06:18:15.236Z,96737.91
2022-08-31T06:20:43.348Z,96734.38
2022-08-31T06:23:22.932Z,96737.63
2022-08-31T06:25:50.718Z,96745.22
2022-08-31T06:28:20.451Z,96748.63
2022-08-31T06:30:55.408Z,96751.19
2022-08-31T06:33:24.816Z,96756.09
2022-08-31T06:35:58.342Z,96760.53
2022-08-31T06:38:26.391Z,96752.31
2022-08-31T06:40:54.477Z,96754.56
2022-08-31T06:43:23.215Z,96762.88
2022-08-31T06:45:52.426Z,96768.75
2022-08-31T06:48:20.300Z,96768.13
2022-08-31T06:50:53.893Z,96769.44
2022-08-31T06:53:21.777Z,96778.06
2022-08-31T06:56:03.752Z,96774.41
2022-08-31T06:58:32.319Z,96767.28
2022-08-31T07:01:11.489Z,96765.44
2022-08-31T07:03:39.645Z,96763.06
2022-08-31T07:06:10.894Z,96755.56
2022-08-31T07:08:42.055Z,96739.56
2022-08-31T07:11:15.669Z,96714.56
2022-08-31T07:13:43.871Z,96736.03
2022-08-31T07:16:15.464Z,96737.13
2022-08-31T07:18:43.654Z,96735.97
2022-08-31T07:21:13.678Z,96754.00
2022-08-31T07:23:41.726Z,96754.00
2022-08-31T07:26:10.432Z,96748.38
2022-08-31T07:28:39.007Z,96757.19
2022-08-31T07:31:08.648Z,96743.59
2022-08-31T07:33:39.174Z,96739.06
2022-08-31T07:36:16.983Z,96750.44
2022-08-31T07:39:04.103Z,96748.44
2022-08-31T07:41:49.356Z,96761.84
2022-08-31T07:44:18.621Z,96761.34
2022-08-31T07:46:48.163Z,96774.91
2022-08-31T07:49:19.554Z,96779.06
2022-08-31T07:51:50.521Z,96781.06
2022-08-31T07:54:20.725Z,96779.22
2022-08-31T07:56:51.957Z,96783.63
2022-08-31T07:59:23.064Z,96774.38
2022-08-31T08:01:50.900Z,96781.59
2022-08-31T08:04:25.205Z,96770.56
2022-08-31T08:06:56.805Z,96775.16
2022-08-31T08:09:27.433Z,96774.06
2022-08-31T08:12:01.056Z,96768.56
2022-08-31T08:14:30.209Z,96770.91
2022-08-31T08:16:58.755Z,96773.47
2022-08-31T08:19:28.183Z,96779.59
2022-08-31T08:21:57.250Z,96786.31
2022-08-31T08:24:29.515Z,96793.72
2022-08-31T08:26:57.579Z,96788.81
2022-08-31T08:29:27.360Z,96785.75
2022-08-31T08:31:55.630Z,96793.22
2022-08-31T08:34:27.141Z,96789.72
2022-08-31T08:37:00.825Z,96788.22
2022-08-31T08:39:30.245Z,96790.00
2022-08-31T08:41:58.142Z,96792.88
2022-08-31T08:44:33.126Z,96788.00
2022-08-31T08:47:03.835Z,96793.38
2022-08-31T08:49:38.699Z,96790.06
2022-08-31T08:52:11.676Z,96797.97
2022-08-31T08:54:42.924Z,96796.31
2022-08-31T08:57:14.129Z,96795.75
2022-08-31T08:59:44.324Z,96809.47
2022-08-31T09:02:14.261Z,96811.38
2022-08-31T09:04:47.389Z,96813.78
2022-08-31T09:07:21.218Z,96779.25
2022-08-31T09:09:57.309Z,96813.91
2022-08-31T09:12:32.244Z,96812.19
2022-08-31T09:15:07.191Z,96819.31
2022-08-31T09:17:36.638Z,96816.44
2022-08-31T09:20:05.794Z,96810.88
2022-08-31T09:22:34.604Z,96815.13
2022-08-31T09:25:04.258Z,96836.72
2022-08-31T09:27:46.671Z,96820.72
2022-08-31T09:30:18.097Z,96856.09
2022-08-31T09:32:59.414Z,96828.09
2022-08-31T09:35:29.222Z,96826.97
2022-08-31T09:38:01.998Z,96829.19
2022-08-31T09:40:38.434Z,96821.19
2022-08-31T09:43:07.362Z,96818.13
2022-08-31T09:45:41.872Z,96816.72
2022-08-31T09:48:15.322Z,96816.53
2022-08-31T09:50:45.265Z,96818.34
2022-08-31T09:53:37.617Z,96818.50
2022-08-31T09:56:18.702Z,96815.31
2022-08-31T09:58:47.901Z,96818.53
2022-08-31T10:01:21.108Z,96826.75
2022-08-31T10:03:50.348Z,96826.28
2022-08-31T10:06:30.239Z,96829.88
2022-08-31T10:09:02.583Z,96824.66
2022-08-31T10:11:35.297Z,96836.38
2022-08-31T10:14:04.763Z,96832.34
2022-08-31T10:16:33.904Z,96832.88
2022-08-31T10:19:03.090Z,96834.28
2022-08-31T10:21:43.976Z,96828.97
2022-08-31T10:24:20.782Z,96827.00
2022-08-31T10:26:51.977Z,96827.97
2022-08-31T10:29:24.330Z,96828.56
2022-08-31T10:31:54.481Z,96823.28
2022-08-31T10:34:40.121Z,96830.41
2022-08-31T10:37:10.357Z,96830.84
2022-08-31T10:39:45.322Z,96824.06
2022-08-31T10:42:15.998Z,96829.72
2022-08-31T10:44:57.085Z,96826.97
2022-08-31T10:47:33.817Z,96827.28
2022-08-31T10:50:03.350Z,96827.59
2022-08-31T10:52:32.566Z,96820.50
2022-08-31T10:55:06.788Z,96848.19
2022-08-31T10:57:38.271Z,96818.13
2022-08-31T11:00:09.390Z,96832.34
2022-08-31T11:02:42.444Z,96830.44
2022-08-31T11:05:18.896Z,96823.97
2022-08-31T11:07:48.605Z,96835.50
2022-08-31T11:10:22.292Z,96832.50
2022-08-31T11:12:52.349Z,96836.31
2022-08-31T11:15:40.496Z,96825.28
2022-08-31T11:18:29.074Z,96821.53
2022-08-31T11:21:01.412Z,96827.44
2022-08-31T11:23:45.172Z,96817.28
2022-08-31T11:26:33.993Z,96829.22
2022-08-31T11:29:10.076Z,96825.19
2022-08-31T11:31:38.987Z,96819.53
2022-08-31T11:34:17.691Z,96823.91
2022-08-31T11:36:54.837Z,96820.28
2022-08-31T11:39:45.746Z,96819.34
2022-08-31T11:42:17.743Z,96819.38
2022-08-31T11:45:03.305Z,96816.38
2022-08-31T11:47:54.924Z,96819.97
2022-08-31T11:50:56.354Z,96814.41
2022-08-31T11:53:30.386Z,96816.66
2022-08-31T11:56:05.212Z,96812.38
2022-08-31T11:58:38.885Z,96810.50
2022-08-31T12:01:25.540Z,96807.66
2022-08-31T12:03:58.427Z,96804.03
2022-08-31T12:06:47.652Z,96804.81
2022-08-31T12:09:22.055Z,96798.94
2022-08-31T12:11:52.123Z,96799.59
2022-08-31T12:14:20.937Z,96801.47
2022-08-31T12:16:53.116Z,96795.47
2022-08-31T12:19:55.816Z,96793.88
2022-08-31T12:22:53.465Z,96795.75
2022-08-31T12:25:23.480Z,96789.63
2022-08-31T12:27:53.473Z,96793.06
2022-08-31T12:30:25.010Z,96792.94
2022-08-31T12:32:56.649Z,96790.25
2022-08-31T12:35:29.888Z,96785.81
2022-08-31T12:38:01.799Z,96792.72
2022-08-31T12:40:36.370Z,96787.50
2022-08-31T12:43:05.867Z,96781.88
2022-08-31T12:45:55.488Z,96787.53
2022-08-31T12:48:27.066Z,96782.38
2022-08-31T12:50:57.487Z,96782.06
2022-08-31T12:53:40.228Z,96783.06
2022-08-31T12:56:32.755Z,96777.75
2022-08-31T12:59:05.859Z,96778.94
2022-08-31T13:01:36.251Z,96778.59
2022-08-31T13:04:11.825Z,96776.47
2022-08-31T13:06:45.066Z,96775.81
2022-08-31T13:09:25.486Z,96766.69
2022-08-31T13:11:56.411Z,96768.28
2022-08-31T13:14:27.389Z,96776.56
2022-08-31T13:16:56.308Z,96769.41
2022-08-31T13:19:28.619Z,96766.50
2022-08-31T13:22:05.166Z,96770.25
2022-08-31T13:24:35.264Z,96762.63
2022-08-31T13:27:41.275Z,96766.34
2022-08-31T13:30:18.494Z,96757.66
2022-08-31T13:33:26.509Z,96754.97
2022-08-31T13:35:56.021Z,96753.97
2022-08-31T13:39:25.927Z,96755.78
2022-08-31T13:41:56.297Z,96752.81
2022-08-31T13:44:33.847Z,96745.00
2022-08-31T13:47:05.189Z,96742.63
2022-08-31T13:49:35.875Z,96743.22
2022-08-31T13:52:07.240Z,96737.63
2022-08-31T13:54:39.402Z,96736.84
2022-08-31T13:57:12.686Z,96732.44
2022-08-31T13:59:46.122Z,96731.41
2022-08-31T14:02:37.294Z,96739.09
2022-08-31T14:05:08.663Z,96730.53
2022-08-31T14:08:11.340Z,96741.25
2022-08-31T14:10:43.081Z,96739.03
2022-08-31T14:13:31.900Z,96737.78
2022-08-31T14:19:39.621Z,96733.84
2022-08-31T14:22:27.268Z,96727.31
2022-08-31T14:28:21.467Z,96724.44
2022-08-31T14:31:27.612Z,96719.53
2022-08-31T14:34:21.797Z,96717.63
2022-08-31T14:37:16.658Z,96716.66
2022-08-31T14:39:45.616Z,96717.63
2022-08-31T14:42:19.882Z,96720.28
2022-08-31T14:44:53.760Z,96716.25
2022-08-31T14:47:39.606Z,96717.22
2022-08-31T14:50:15.261Z,96718.38
2022-08-31T14:52:44.445Z,96713.81
2022-08-31T14:55:13.754Z,96702.47
2022-08-31T14:57:42.160Z,96709.56
2022-08-31T15:00:15.157Z,96701.66
2022-08-31T15:02:55.092Z,96701.78
2022-08-31T15:05:42.074Z,96698.22
2022-08-31T15:08:22.913Z,96701.53
2022-08-31T15:11:07.402Z,96697.09
2022-08-31T15:13:45.022Z,96689.63
2022-08-31T15:16:18.582Z,96686.06
2022-08-31T15:18:54.397Z,96690.41
2022-08-31T15:21:28.402Z,96695.59
2022-08-31T15:24:08.838Z,96684.88
2022-08-31T15:26:43.370Z,96683.22
2022-08-31T15:29:17.889Z,96679.06
2022-08-31T15:31:53.382Z,96683.28
2022-08-31T15:34:27.773Z,96687.28
2022-08-31T15:37:16.494Z,96691.63
2022-08-31T15:39:49.186Z,96485.22
2022-08-31T15:42:25.498Z,96679.72
2022-08-31T15:45:01.617Z,96677.09
2022-08-31T15:47:49.356Z,96682.47
2022-08-31T15:50:19.292Z,96679.16
2022-08-31T15:53:08.881Z,96680.38
2022-08-31T15:55:54.777Z,96678.44
2022-08-31T15:58:25.495Z,96679.06
2022-08-31T16:00:56.449Z,96668.91
2022-08-31T16:03:25.600Z,96669.13
2022-08-31T16:05:59.186Z,96670.06
2022-08-31T16:08:33.088Z,96674.78
2022-08-31T16:11:12.143Z,96674.28
2022-08-31T16:13:52.965Z,96673.31
2022-08-31T16:16:27.065Z,96671.69
2022-08-31T16:19:08.271Z,96675.69
2022-08-31T16:21:38.023Z,96673.09
2022-08-31T16:24:18.047Z,96670.56
2022-08-31T16:26:48.432Z,96671.94
2022-08-31T16:29:19.359Z,96665.72
2022-08-31T16:31:55.495Z,96670.50
2022-08-31T16:34:33.153Z,96659.75
2022-08-31T16:37:10.159Z,96664.88
2022-08-31T16:39:40.726Z,96657.88
2022-08-31T16:42:11.144Z,96653.31
2022-08-31T16:44:49.898Z,96655.00
2022-08-31T16:47:21.518Z,96661.94
2022-08-31T16:49:53.550Z,96665.13
2022-08-31T16:52:26.246Z,96665.31
2022-08-31T16:55:04.506Z,96667.56
2022-08-31T16:57:36.978Z,96664.88
2022-08-31T17:00:05.242Z,96663.38
2022-08-31T17:02:33.595Z,96668.13
2022-08-31T17:05:04.976Z,96664.41
2022-08-31T17:07:32.720Z,96676.69
2022-08-31T17:10:06.986Z,96468.47
2022-08-31T17:12:36.904Z,96674.84
2022-08-31T17:15:06.466Z,96671.56
2022-08-31T17:17:36.922Z,96678.50
2022-08-31T17:20:05.219Z,96675.91
2022-08-31T17:22:33.643Z,96670.16
2022-08-31T17:25:04.395Z,96670.81
2022-08-31T17:27:33.688Z,96673.28
2022-08-31T17:30:05.445Z,96681.09
2022-08-31T17:32:36.569Z,96675.63
2022-08-31T17:35:08.804Z,96682.66
2022-08-31T17:37:37.460Z,96681.16
2022-08-31T17:40:12.647Z,96677.38
2022-08-31T17:42:40.418Z,96680.06
2022-08-31T17:45:08.986Z,96681.91
2022-08-31T17:47:36.862Z,96687.84
2022-08-31T17:50:05.203Z,96690.31
2022-08-31T17:52:32.998Z,96687.41
2022-08-31T17:55:01.897Z,96682.69
2022-08-31T17:57:31.632Z,96690.66
2022-08-31T17:59:59.565Z,96695.53
2022-08-31T18:02:34.567Z,96691.53
2022-08-31T18:05:03.700Z,96691.78
2022-08-31T18:07:44.546Z,96697.81
2022-08-31T18:10:12.713Z,96700.50
2022-08-31T18:12:44.360Z,96701.28
2022-08-31T18:15:12.786Z,96704.19
2022-08-31T18:17:41.016Z,96707.84
2022-08-31T18:20:12.568Z,96711.44
2022-08-31T18:22:41.067Z,96717.38
2022-08-31T18:25:09.250Z,96715.00
2022-08-31T18:27:37.000Z,96723.91
2022-08-31T18:30:10.058Z,96718.56
2022-08-31T18:32:38.589Z,96717.66
2022-08-31T18:35:16.903Z,96717.09
2022-08-31T18:37:44.888Z,96717.06
2022-08-31T18:40:30.884Z,96716.31
2022-08-31T18:43:24.886Z,96717.91
2022-08-31T18:45:54.693Z,96724.25
2022-08-31T18:48:28.613Z,96727.69
2022-08-31T18:51:01.885Z,96714.88
2022-08-31T18:53:32.462Z,96718.59
2022-08-31T18:56:06.332Z,96720.19
2022-08-31T18:58:35.688Z,96720.31
2022-08-31T19:01:07.524Z,96727.84
2022-08-31T19:03:37.939Z,96726.84
2022-08-31T19:06:06.816Z,96729.00
2022-08-31T19:08:35.921Z,96726.47
2022-08-31T19:11:07.091Z,96734.22
2022-08-31T19:13:35.214Z,96727.19
2022-08-31T19:16:15.015Z,96728.06
2022-08-31T19:18:44.285Z,96722.53
2022-08-31T19:21:16.327Z,96724.81
2022-08-31T19:23:48.642Z,96722.44
2022-08-31T19:26:24.305Z,96713.31
2022-08-31T19:28:54.430Z,96713.44
2022-08-31T19:31:24.304Z,96712.84
2022-08-31T19:33:57.395Z,96716.41
2022-08-31T19:36:27.820Z,96715.00
2022-08-31T19:38:57.525Z,96713.75
2022-08-31T19:41:26.562Z,96708.00
2022-08-31T19:44:07.789Z,96712.59
2022-08-31T19:46:38.157Z,96712.97
2022-08-31T19:49:11.081Z,96715.13
2022-08-31T19:51:40.418Z,96713.50
2022-08-31T19:54:11.679Z,96713.31
2022-08-31T19:56:45.893Z,96712.00
2022-08-31T19:59:18.249Z,96705.41
2022-08-31T20:01:56.082Z,96702.72
2022-08-31T20:04:27.384Z,96697.66
2022-08-31T20:06:55.568Z,96697.50
2022-08-31T20:09:24.142Z,96692.91
2022-08-31T20:11:52.703Z,96697.66
2022-08-31T20:14:23.496Z,96690.84
2022-08-31T20:16:53.227Z,96690.06
2022-08-31T20:19:26.121Z,96690.66
2022-08-31T20:21:54.339Z,96683.41
2022-08-31T20:24:22.579Z,96689.56
2022-08-31T20:26:53.037Z,96687.38
2022-08-31T20:29:21.194Z,96691.63
2022-08-31T20:31:50.113Z,96685.47
2022-08-31T20:34:21.878Z,96689.59
2022-08-31T20:37:00.885Z,96686.09
2022-08-31T20:39:35.032Z,96453.22
2022-08-31T20:42:03.608Z,96690.06
2022-08-31T20:44:32.148Z,96688.81
2022-08-31T20:47:19.932Z,96689.91
2022-08-31T20:49:52.892Z,96686.13
2022-08-31T20:52:21.863Z,96689.25
2022-08-31T20:54:51.596Z,96687.81
2022-08-31T20:57:22.857Z,96690.34
2022-08-31T20:59:55.517Z,96699.97
2022-08-31T21:02:26.159Z,96689.41
2022-08-31T21:04:56.993Z,96689.59
2022-08-31T21:07:24.865Z,96691.16
2022-08-31T21:09:52.732Z,96690.19
2022-08-31T21:12:21.080Z,96692.25
2022-08-31T21:14:49.275Z,96694.22
2022-08-31T21:17:17.189Z,96694.47
2022-08-31T21:19:46.653Z,96696.69
2022-08-31T21:22:21.085Z,96719.94
2022-08-31T21:24:50.730Z,96687.22
2022-08-31T21:27:19.544Z,96696.00
2022-08-31T21:29:50.005Z,96691.63
2022-08-31T21:32:19.739Z,96696.34
2022-08-31T21:34:48.635Z,96694.53
2022-08-31T21:37:21.050Z,96690.97
2022-08-31T21:39:49.076Z,96691.75
2022-08-31T21:42:16.889Z,96701.25
2022-08-31T21:44:45.430Z,96695.41
2022-08-31T21:47:16.252Z,96688.63
2022-08-31T21:49:44.531Z,96692.13
2022-08-31T21:52:12.746Z,96702.22
2022-08-31T21:54:48.156Z,96687.53
2022-08-31T21:57:21.443Z,96696.34
2022-08-31T21:59:50.262Z,96697.72
2022-08-31T22:02:18.674Z,96692.78
2022-08-31T22:04:46.480Z,96697.75
2022-08-31T22:07:15.065Z,96697.84
2022-08-31T22:09:48.627Z,96703.34
2022-08-31T22:12:18.256Z,96703.53
2022-08-31T22:14:45.862Z,96711.72
2022-08-31T22:17:16.285Z,96702.44
2022-08-31T22:19:48.777Z,96704.97
2022-08-31T22:22:17.815Z,96702.06
2022-08-31T22:24:48.651Z,96706.97
2022-08-31T22:27:18.880Z,96702.88
2022-08-31T22:29:49.498Z,96710.75
2022-08-31T22:32:18.215Z,96716.28
2022-08-31T22:34:46.197Z,96715.25
2022-08-31T22:37:14.286Z,96713.06
2022-08-31T22:39:43.007Z,96712.72
2022-08-31T22:42:13.381Z,96715.66
2022-08-31T22:44:42.430Z,96714.16
2022-08-31T22:47:10.187Z,96711.00
2022-08-31T22:49:40.361Z,96713.63
2022-08-31T22:52:08.202Z,96717.78
2022-08-31T22:54:39.484Z,96714.81
2022-08-31T22:57:08.905Z,96713.06
2022-08-31T22:59:42.381Z,96710.69
2022-08-31T23:02:10.379Z,96718.63
2022-08-31T23:04:43.748Z,96671.25
2022-08-31T23:07:12.335Z,96705.53
2022-08-31T23:09:40.232Z,96454.59
2022-08-31T23:12:08.226Z,96708.81
2022-08-31T23:14:42.399Z,96700.34
2022-08-31T23:17:10.693Z,96697.53
2022-08-31T23:19:40.412Z,96703.78
2022-08-31T23:22:10.709Z,96739.53
2022-08-31T23:24:39.115Z,96697.59
2022-08-31T23:27:10.400Z,96690.97
2022-08-31T23:29:41.022Z,96733.78
2022-08-31T23:32:18.121Z,96691.78
2022-08-31T23:34:51.553Z,96683.03
2022-08-31T23:37:25.598Z,96678.91
2022-08-31T23:39:54.549Z,96678.22
2022-08-31T23:42:24.346Z,96609.56
2022-08-31T23:44:52.236Z,96683.59
2022-08-31T23:47:22.638Z,96675.91
2022-08-31T23:49:52.463Z,96681.53
2022-08-31T23:52:21.525Z,96672.75
2022-08-31T23:54:50.082Z,96676.34
2022-08-31T23:57:32.358Z,96675.72
